Time;durP1;ratioP1;P1;durP2;ratioP2;P2;SDS_P1;SDS_P2;PMS_P1;PMS_P2;Temp;Humidity;BMP_temperature;BMP_pressure;BME280_temperature;BME280_humidity;BME280_pressure;Samples;Min_cycle;Max_cycle;Signal;HPM_P1;HPM_P2
2022/08/04 00:01:06;;;;;;;11.63;5.20;;;;;;;22.46;46.71;99800.38;4971925;28;20144;-71
2022/08/04 00:03:49;;;;;;;13.55;5.57;;;;;;;22.44;46.77;99788.63;5046821;28;20052;-71
2022/08/04 00:06:37;;;;;;;11.02;5.88;;;;;;;22.43;46.87;99794.72;5052607;28;20057;-71
2022/08/04 00:09:28;;;;;;;16.17;5.80;;;;;;;22.41;46.96;99800.78;5052445;28;20522;-71
2022/08/04 00:12:00;;;;;;;12.40;5.57;;;;;;;22.34;47.26;99797.97;5052489;28;20048;-71
2022/08/04 00:14:33;;;;;;;10.25;5.35;;;;;;;22.29;47.31;99795.53;5052639;28;20075;-71
2022/08/04 00:17:05;;;;;;;12.43;5.60;;;;;;;22.27;47.47;99802.81;5051265;28;20059;-71
2022/08/04 00:19:44;;;;;;;10.60;5.38;;;;;;;22.22;47.64;99800.38;5052587;28;20057;-71
2022/08/04 00:22:12;;;;;;;7.77;5.00;;;;;;;22.17;47.78;99792.31;5053005;28;20124;-71
2022/08/04 00:24:40;;;;;;;8.38;5.03;;;;;;;22.11;47.96;99791.88;5052585;28;20057;-72
2022/08/04 00:27:08;;;;;;;17.38;5.47;;;;;;;22.11;48.09;99805.25;5052343;28;20049;-72
2022/08/04 00:29:37;;;;;;;10.07;5.18;;;;;;;22.08;48.07;99795.50;5044080;28;20053;-72
2022/08/04 00:32:07;;;;;;;23.50;5.00;;;;;;;22.07;48.21;99804.41;5032307;28;20144;-72
2022/08/04 00:34:35;;;;;;;12.77;5.43;;;;;;;22.03;48.27;99798.78;5031251;28;20140;-71
2022/08/04 00:37:03;;;;;;;12.45;4.88;;;;;;;22.05;48.46;99796.31;5032387;28;20136;-71
2022/08/04 00:39:32;;;;;;;18.90;6.68;;;;;;;22.02;48.52;99797.13;5032517;28;20061;-73
2022/08/04 00:42:17;;;;;;;10.70;5.25;;;;;;;22.00;48.59;99799.56;5032585;28;20566;-71
2022/08/04 00:45:34;;;;;;;10.95;5.07;;;;;;;21.98;48.71;99801.16;5032228;28;20060;-71
2022/08/04 00:48:37;;;;;;;10.52;4.97;;;;;;;21.98;48.67;99809.66;5007295;28;20058;-72
2022/08/04 00:51:50;;;;;;;13.57;5.10;;;;;;;21.99;48.68;99814.16;5010567;28;20424;-72
2022/08/04 00:54:49;;;;;;;13.57;4.95;;;;;;;22.07;48.46;99812.91;5010294;28;20050;-71
2022/08/04 00:57:34;;;;;;;9.00;4.67;;;;;;;22.09;48.32;99814.16;5010336;28;20053;-71
2022/08/04 01:00:13;;;;;;;19.67;5.63;;;;;;;22.14;48.17;99819.41;5010900;28;20062;-70
2022/08/04 01:03:05;;;;;;;8.73;4.82;;;;;;;22.10;48.55;99810.09;5010031;28;20053;-71
2022/08/04 01:06:00;;;;;;;11.60;5.32;;;;;;;22.11;48.40;99823.03;5010633;28;20496;-72
2022/08/04 01:08:40;;;;;;;10.65;5.43;;;;;;;22.11;48.71;99816.59;5010074;28;20045;-71
2022/08/04 01:11:26;;;;;;;;;;;;;;;22.01;48.45;99821.03;5010484;28;20057;-69
2022/08/04 01:14:14;;;;;;;7.97;4.38;;;;;;;22.10;48.02;99821.44;5010383;28;19932;-72
2022/08/04 01:16:51;;;;;;;9.02;4.75;;;;;;;22.19;47.73;99824.69;5010713;28;20046;-71
2022/08/04 01:19:47;;;;;;;10.43;4.82;;;;;;;22.18;47.58;99828.75;5043027;28;20459;-71
2022/08/04 01:22:32;;;;;;;12.18;6.90;;;;;;;22.26;46.75;99826.72;5037151;28;20052;-68
2022/08/04 01:25:11;;;;;;;14.35;4.95;;;;;;;22.27;46.47;99825.50;5032156;28;20054;-68
2022/08/04 01:27:58;;;;;;;12.15;5.72;;;;;;;22.30;45.86;99819.84;5032032;28;20045;-68
2022/08/04 01:30:26;;;;;;;13.50;5.78;;;;;;;22.30;45.82;99819.84;5046773;28;20136;-67
2022/08/04 01:33:04;;;;;;;17.30;5.45;;;;;;;22.33;45.51;99824.69;5052171;28;20110;-67
2022/08/04 01:35:46;;;;;;;8.05;4.95;;;;;;;22.33;45.55;99824.69;5051620;28;20053;-68
2022/08/04 01:38:16;;;;;;;12.88;5.80;;;;;;;22.32;45.47;99823.06;5051846;28;20040;-69
2022/08/04 01:40:53;;;;;;;16.88;5.35;;;;;;;22.31;45.86;99824.28;5051952;28;20048;-68
2022/08/04 01:43:20;;;;;;;9.80;5.47;;;;;;;22.27;46.18;99829.16;5052031;28;20535;-68
2022/08/04 01:45:56;;;;;;;9.65;5.50;;;;;;;22.23;46.20;99828.31;5051979;28;20052;-68
2022/08/04 01:48:26;;;;;;;12.85;5.68;;;;;;;22.19;46.09;99836.03;5053482;28;20095;-67
2022/08/04 01:50:56;;;;;;;11.25;5.63;;;;;;;22.17;46.24;99834.81;5055646;28;20049;-67
2022/08/04 01:53:30;;;;;;;13.90;6.05;;;;;;;22.22;46.06;99829.53;5055527;28;20059;-67
2022/08/04 01:55:57;;;;;;;13.85;5.43;;;;;;;22.20;46.33;99820.63;5055721;28;20049;-68
2022/08/04 01:58:25;;;;;;;13.98;6.25;;;;;;;22.20;46.26;99836.84;5053751;28;20462;-68
2022/08/04 02:01:01;;;;;;;12.25;6.35;;;;;;;22.21;46.08;99839.28;5055323;28;20077;-67
2022/08/04 02:03:39;;;;;;;15.65;6.32;;;;;;;22.22;46.09;99838.03;5055061;28;20065;-68
2022/08/04 02:06:40;;;;;;;17.00;6.55;;;;;;;22.23;46.19;99839.66;5055065;28;20060;-68
2022/08/04 02:09:09;;;;;;;12.23;6.38;;;;;;;22.21;46.14;99833.59;5054784;28;20091;-68
2022/08/04 02:11:39;;;;;;;14.50;7.22;;;;;;;22.20;46.07;99831.97;5043507;28;20049;-67
2022/08/04 02:14:39;;;;;;;12.93;8.25;;;;;;;22.18;46.14;99834.41;5034819;28;20132;-68
2022/08/04 02:17:09;;;;;;;17.75;6.88;;;;;;;22.17;46.16;99837.66;5034742;28;20080;-67
2022/08/04 02:19:41;;;;;;;;;;;;;;;22.09;46.28;99839.66;5049303;28;20052;-67
2022/08/04 02:22:13;;;;;;;21.48;6.97;;;;;;;22.14;46.22;99833.56;5054538;28;19925;-68
2022/08/04 02:24:45;;;;;;;14.32;6.85;;;;;;;22.18;46.29;99834.41;5054845;28;20075;-67
2022/08/04 02:27:13;;;;;;;15.48;6.55;;;;;;;22.18;46.09;99837.25;5053660;28;20049;-67
2022/08/04 02:29:53;;;;;;;15.50;6.80;;;;;;;22.21;45.98;99844.13;5054583;28;20151;-71
2022/08/04 02:32:25;;;;;;;15.35;7.28;;;;;;;22.20;46.11;99842.50;5054331;28;20060;-72
2022/08/04 02:35:24;;;;;;;15.13;6.95;;;;;;;22.21;46.04;99844.94;5054606;28;20059;-71
2022/08/04 02:38:05;;;;;;;12.27;6.33;;;;;;;22.20;46.15;99837.63;5053978;28;20068;-71
2022/08/04 02:40:32;;;;;;;15.55;7.25;;;;;;;22.22;46.31;99840.88;5054110;28;20303;-72
2022/08/04 02:43:05;;;;;;;20.08;7.25;;;;;;;22.25;46.14;99848.56;5054125;28;20041;-72
2022/08/04 02:45:36;;;;;;;19.60;6.53;;;;;;;22.25;46.07;99851.41;5054429;28;20049;-72
2022/08/04 02:48:04;;;;;;;16.63;6.18;;;;;;;22.23;46.24;99848.16;5054203;28;20530;-72
2022/08/04 02:50:53;;;;;;;13.95;5.97;;;;;;;22.26;46.36;99847.34;5054287;28;20044;-72
2022/08/04 02:53:25;;;;;;;13.65;6.25;;;;;;;22.25;46.18;99845.75;5053868;28;20056;-72
2022/08/04 02:55:54;;;;;;;14.13;6.50;;;;;;;22.28;46.18;99853.44;5054530;28;20419;-72
2022/08/04 02:58:22;;;;;;;;;;;;;;;22.21;46.41;99847.78;5054413;28;20075;-71
2022/08/04 03:00:51;;;;;;;15.50;6.72;;;;;;;22.24;46.27;99852.63;5054036;28;19924;-71
2022/08/04 03:03:30;;;;;;;17.80;7.05;;;;;;;22.32;46.19;99851.41;5053690;28;20508;-71
2022/08/04 03:06:21;;;;;;;15.98;7.25;;;;;;;22.34;46.04;99857.50;5053917;28;20059;-72
2022/08/04 03:09:01;;;;;;;17.67;7.18;;;;;;;22.38;46.15;99852.63;5039013;28;20056;-71
2022/08/04 03:11:40;;;;;;;;;;;;;;;22.31;46.22;99861.13;5044716;28;20056;-71
2022/08/04 03:14:35;;;;;;;17.48;6.85;;;;;;;22.38;46.10;99861.13;5053410;28;19925;-71
2022/08/04 03:17:14;;;;;;;22.50;7.32;;;;;;;22.45;45.91;99861.16;5052514;28;20500;-71
2022/08/04 03:20:02;;;;;;;12.23;6.60;;;;;;;22.48;45.88;99866.03;5053931;28;20063;-71
2022/08/04 03:23:00;;;;;;;16.23;6.43;;;;;;;22.54;45.82;99858.75;5053457;28;20045;-71
2022/08/04 03:26:09;;;;;;;17.17;6.63;;;;;;;22.59;45.71;99866.84;5053922;28;20107;-68
2022/08/04 03:28:51;;;;;;;16.23;6.22;;;;;;;22.69;45.52;99860.38;5043198;28;20056;-68
2022/08/04 03:31:41;;;;;;;13.73;6.05;;;;;;;22.84;45.14;99856.31;5053317;28;20502;-66
2022/08/04 03:34:32;;;;;;;12.13;6.35;;;;;;;23.04;44.83;99865.19;5053462;28;20045;-67
2022/08/04 03:37:26;;;;;;;12.85;5.68;;;;;;;23.16;44.44;99868.41;5053359;28;20052;-68
2022/08/04 03:40:20;;;;;;;11.95;5.38;;;;;;;23.28;44.19;99870.84;5053449;28;20064;-68
2022/08/04 03:42:53;;;;;;;9.45;5.47;;;;;;;23.36;44.03;99878.09;5053468;28;20049;-68
2022/08/04 03:45:48;;;;;;;13.73;5.40;;;;;;;23.44;43.93;99872.44;5053333;28;20064;-67
2022/08/04 03:48:45;;;;;;;18.73;6.63;;;;;;;23.52;43.94;99869.16;5040367;28;20049;-67
2022/08/04 03:54:55;;;;;;;9.20;5.47;;;;;;;23.64;43.50;99888.56;5033134;28;20045;-67
2022/08/04 03:57:31;;;;;;;10.52;5.78;;;;;;;23.66;43.20;99886.13;5042226;28;20470;-67
2022/08/04 04:00:08;;;;;;;19.25;5.93;;;;;;;23.71;43.16;99887.75;5053304;28;20063;-67
2022/08/04 04:02:38;;;;;;;13.77;5.60;;;;;;;23.77;43.52;99880.41;5052792;28;20049;-68
2022/08/04 04:05:40;;;;;;;11.13;5.75;;;;;;;23.83;43.33;99884.44;5052936;28;20557;-67
2022/08/04 04:08:42;;;;;;;10.40;5.38;;;;;;;23.85;43.63;99891.31;5052842;28;20053;-67
2022/08/04 04:11:38;;;;;;;8.18;5.22;;;;;;;23.89;43.71;99894.94;5052500;28;20057;-68
2022/08/04 04:14:48;;;;;;;12.82;5.32;;;;;;;23.96;43.51;99899.81;5052907;28;20049;-67
2022/08/04 04:17:56;;;;;;;7.80;5.15;;;;;;;24.02;42.97;99893.31;5052740;28;20059;-68
2022/08/04 04:20:42;;;;;;;11.38;5.00;;;;;;;24.07;42.91;99892.06;4971998;28;20061;-68
2022/08/04 04:23:39;;;;;;;9.45;5.60;;;;;;;24.11;42.69;99892.84;4972023;28;20056;-67
2022/08/04 04:26:26;;;;;;;14.18;5.45;;;;;;;24.19;42.42;99898.06;5040142;28;20056;-68
2022/08/04 04:29:20;;;;;;;9.43;5.35;;;;;;;24.26;42.23;99892.34;5052670;28;20045;-68
2022/08/04 04:31:58;;;;;;;9.63;4.40;;;;;;;24.31;42.06;99903.25;5052572;28;20045;-67
2022/08/04 04:34:37;;;;;;;11.20;4.93;;;;;;;24.38;41.92;99893.88;5052662;28;20049;-68
2022/08/04 04:37:35;;;;;;;8.52;4.43;;;;;;;24.45;41.94;99891.00;5052379;28;20393;-68
2022/08/04 04:40:59;;;;;;;14.23;4.75;;;;;;;24.49;41.78;99891.78;5051995;28;20128;-67
2022/08/04 04:43:57;;;;;;;10.73;4.78;;;;;;;24.52;41.46;99888.91;4971038;28;20055;-68
2022/08/04 04:46:40;;;;;;;14.85;4.82;;;;;;;24.55;41.67;99887.25;4971066;28;20470;-69
2022/08/04 04:49:27;;;;;;;13.98;5.15;;;;;;;24.57;41.52;99899.03;5020314;28;20053;-68
2022/08/04 04:52:02;;;;;;;7.13;4.53;;;;;;;24.59;41.30;99900.22;5032350;28;20128;-68
2022/08/04 04:54:50;;;;;;;8.75;4.40;;;;;;;24.63;41.09;99898.16;5031888;28;20060;-67
2022/08/04 04:57:20;;;;;;;14.50;4.13;;;;;;;24.65;41.20;99901.44;5032188;28;20049;-67
2022/08/04 05:00:11;;;;;;;9.10;4.05;;;;;;;24.72;40.63;99909.91;5032672;28;20389;-68
2022/08/04 05:02:56;;;;;;;11.48;4.72;;;;;;;24.77;40.56;99911.50;5032033;28;20053;-68
2022/08/04 05:05:53;;;;;;;8.35;4.22;;;;;;;24.83;40.18;99907.78;5032152;28;20065;-67
2022/08/04 05:08:43;;;;;;;8.60;4.50;;;;;;;24.96;39.73;99913.78;5032029;28;20056;-67
2022/08/04 05:11:32;;;;;;;9.15;4.22;;;;;;;25.06;39.62;99912.88;5046949;28;20064;-67
2022/08/04 05:14:28;;;;;;;7.60;4.43;;;;;;;25.16;39.13;99911.94;5031674;28;20054;-68
2022/08/04 05:17:20;;;;;;;6.80;4.35;;;;;;;25.24;38.60;99912.69;5032381;28;20530;-68
2022/08/04 05:19:58;;;;;;;12.45;4.07;;;;;;;25.32;38.35;99909.41;5031757;28;20084;-67
2022/08/04 05:22:53;;;;;;;8.48;4.35;;;;;;;25.52;38.19;99913.22;5032016;28;20042;-68
2022/08/04 05:25:20;;;;;;;10.88;4.43;;;;;;;25.66;38.01;99912.25;5035638;28;20540;-68
2022/08/04 05:28:09;;;;;;;14.52;4.40;;;;;;;25.92;37.93;99909.50;5035699;28;20057;-68
2022/08/04 05:30:48;;;;;;;7.00;4.57;;;;;;;26.12;37.63;99906.81;5035710;28;20049;-67
2022/08/04 05:33:24;;;;;;;20.50;4.38;;;;;;;26.33;37.07;99906.50;5035582;28;20041;-67
2022/08/04 05:35:59;;;;;;;10.75;4.55;;;;;;;26.56;36.95;99904.50;5045184;28;20049;-67
2022/08/04 05:38:52;;;;;;;9.02;4.68;;;;;;;26.83;36.11;99900.84;5055516;28;20041;-67
2022/08/04 05:41:21;;;;;;;37.83;13.98;;;;;;;27.07;35.89;99899.63;5055190;28;20055;-66
2022/08/04 05:43:58;;;;;;;5.75;3.53;;;;;;;27.30;35.28;99908.22;5054124;28;20041;-65
2022/08/04 05:46:26;;;;;;;9.18;3.50;;;;;;;27.52;35.13;99903.69;5055606;28;20059;-67
2022/08/04 05:48:54;;;;;;;5.15;3.45;;;;;;;27.82;34.31;99907.16;5055572;28;20419;-67
2022/08/04 05:51:22;;;;;;;8.07;4.35;;;;;;;28.19;33.49;99898.19;5055371;28;20503;-68
2022/08/04 05:53:50;;;;;;;11.07;3.55;;;;;;;28.66;32.91;99898.78;5055048;28;20052;-67
2022/08/04 05:56:18;;;;;;;9.45;3.05;;;;;;;28.95;31.98;99905.38;5055179;28;20053;-68
2022/08/04 05:58:45;;;;;;;6.28;3.17;;;;;;;29.53;30.84;99906.34;5054888;28;20052;-68
2022/08/04 06:01:18;;;;;;;34.20;11.15;;;;;;;30.42;29.30;99906.19;5054937;28;20049;-68
2022/08/04 06:03:47;;;;;;;8.73;4.40;;;;;;;32.47;26.47;99904.19;5053512;28;20049;-68
2022/08/04 06:06:19;;;;;;;10.23;3.30;;;;;;;34.88;23.13;99899.56;5055011;28;20481;-68
2022/08/04 06:08:46;;;;;;;7.93;3.20;;;;;;;33.61;24.01;99903.94;5054792;28;20041;-67
2022/08/04 06:11:15;;;;;;;10.32;2.90;;;;;;;32.69;25.06;99901.25;5044245;28;20060;-67
2022/08/04 06:13:54;;;;;;;8.00;2.60;;;;;;;34.85;22.59;99912.06;5034548;28;20394;-67
2022/08/04 06:16:26;;;;;;;5.15;2.70;;;;;;;35.16;22.08;99900.97;5050256;28;20365;-68
2022/08/04 06:19:00;;;;;;;6.13;2.85;;;;;;;34.00;23.19;99903.78;5034569;28;20145;-69
2022/08/04 06:21:50;;;;;;;10.30;2.28;;;;;;;32.76;24.19;99904.66;5034627;28;20076;-67
2022/08/04 06:24:25;;;;;;;22.20;3.80;;;;;;;31.70;25.40;99902.19;5036578;28;20088;-67
2022/08/04 06:26:53;;;;;;;5.45;3.50;;;;;;;31.03;25.80;99898.03;5054261;28;20057;-66
2022/08/04 06:29:36;;;;;;;9.85;3.15;;;;;;;30.65;26.32;99908.72;5054203;28;20048;-67
2022/08/04 06:35:01;;;;;;;7.63;2.53;;;;;;;30.40;26.12;99907.91;5054061;28;20040;-68
2022/08/04 06:37:31;;;;;;;3.75;2.70;;;;;;;30.29;26.50;99902.50;5054422;28;20135;-67
2022/08/04 06:40:11;;;;;;;23.60;13.43;;;;;;;30.14;26.22;99910.69;5053607;28;20071;-66
2022/08/04 06:43:05;;;;;;;11.85;2.75;;;;;;;29.97;25.93;99917.78;5059795;28;20056;-67
2022/08/04 06:45:38;;;;;;;3.70;2.50;;;;;;;30.02;26.46;99914.34;5061733;28;20048;-67
2022/08/04 06:48:06;;;;;;;8.68;2.33;;;;;;;29.96;26.23;99912.50;5058176;28;20127;-67
2022/08/04 06:50:34;;;;;;;7.32;2.28;;;;;;;30.02;26.28;99910.69;5072997;28;20048;-66
2022/08/04 06:53:21;;;;;;;5.18;2.58;;;;;;;30.21;25.93;99924.06;5058375;28;20593;-67
2022/08/04 06:55:49;;;;;;;4.22;2.20;;;;;;;29.58;26.35;99914.41;5060247;28;20392;-68
2022/08/04 06:58:19;;;;;;;7.35;2.47;;;;;;;29.23;27.24;99909.63;5069506;28;20044;-66
2022/08/04 07:00:47;;;;;;;4.78;2.22;;;;;;;30.01;26.08;99914.78;5071726;28;20135;-67
2022/08/04 07:03:16;;;;;;;9.93;2.80;;;;;;;31.99;24.37;99909.78;5048428;28;20053;-67
2022/08/04 07:05:46;;;;;;;8.20;3.83;;;;;;;32.82;23.54;99917.16;5053874;28;20118;-67
2022/08/04 07:08:14;;;;;;;9.43;4.13;;;;;;;31.96;23.88;99911.53;5054121;28;20052;-67
2022/08/04 07:10:43;;;;;;;11.80;2.97;;;;;;;31.18;24.01;99909.84;5066609;28;20569;-67
2022/08/04 07:13:11;;;;;;;5.20;2.40;;;;;;;32.29;23.09;99911.94;5063115;28;20068;-66
2022/08/04 07:15:41;;;;;;;6.95;1.98;;;;;;;34.08;21.13;99898.47;5059409;28;20086;-67
2022/08/04 07:18:08;;;;;;;11.90;2.63;;;;;;;34.51;20.41;99906.72;5065486;28;20041;-66
2022/08/04 07:20:35;;;;;;;13.05;2.92;;;;;;;36.28;19.17;99906.56;5073240;28;20044;-67
2022/08/04 07:23:04;;;;;;;7.95;2.10;;;;;;;40.16;15.90;99912.38;5055334;28;20127;-67
2022/08/04 07:25:34;;;;;;;;;;;;;;;43.27;13.57;99911.50;5053808;28;20071;-68
2022/08/04 07:28:25;;;;;;;5.20;2.72;;;;;;;46.39;10.64;99908.88;5055022;28;19936;-68
2022/08/04 07:30:57;;;;;;;4.85;2.47;;;;;;;48.13;9.62;99903.03;5059696;28;20052;-67
2022/08/04 07:33:24;;;;;;;8.98;2.25;;;;;;;49.63;9.05;99907.56;5060258;28;20136;-67
2022/08/04 07:35:55;;;;;;;14.93;2.72;;;;;;;50.32;8.12;99921.59;5044891;28;20036;-67
2022/08/04 07:38:39;;;;;;;10.73;2.60;;;;;;;50.39;8.03;99908.91;5068408;28;20048;-67
2022/08/04 07:41:21;;;;;;;3.35;2.20;;;;;;;51.22;7.53;99909.09;5054864;28;20053;-67
2022/08/04 07:44:07;;;;;;;13.23;2.30;;;;;;;52.47;6.81;99897.78;5052795;28;20056;-69
2022/08/04 07:46:35;;;;;;;9.23;4.65;;;;;;;53.83;6.10;99901.41;5065152;28;20503;-67
2022/08/04 07:49:03;;;;;;;4.57;2.55;;;;;;;54.82;5.59;99901.66;5060767;28;20494;-67
2022/08/04 07:51:30;;;;;;;5.45;2.65;;;;;;;54.52;5.71;99901.56;5061197;28;20052;-67
2022/08/04 07:53:59;;;;;;;8.73;2.63;;;;;;;54.70;5.23;99894.78;5071382;28;20123;-67
2022/08/04 07:56:27;;;;;;;8.00;2.20;;;;;;;55.43;4.79;99900.91;5052437;28;20053;-67
2022/08/04 07:58:55;;;;;;;10.90;3.65;;;;;;;55.45;4.53;99898.84;5052468;28;20053;-67
2022/08/04 08:01:23;;;;;;;11.13;2.65;;;;;;;54.95;4.43;99904.09;5048261;28;20048;-67
2022/08/04 08:03:52;;;;;;;5.70;2.42;;;;;;;54.64;4.90;99903.28;5054283;28;20087;-67
2022/08/04 08:06:20;;;;;;;9.27;2.78;;;;;;;55.84;4.28;99907.53;5052521;28;20087;-66
2022/08/04 08:09:06;;;;;;;14.50;2.80;;;;;;;56.68;4.08;99904.38;5052157;28;20106;-67
2022/08/04 08:11:41;;;;;;;5.75;2.50;;;;;;;56.90;3.66;99902.81;5053119;28;20049;-68
2022/08/04 08:14:29;;;;;;;3.03;2.35;;;;;;;55.19;4.18;99893.94;5055548;28;20068;-66
2022/08/04 08:17:03;;;;;;;10.45;2.08;;;;;;;55.82;3.99;99889.47;5068267;28;20045;-67
2022/08/04 08:19:31;;;;;;;4.57;2.70;;;;;;;56.61;3.51;99899.41;5052201;28;20048;-67
2022/08/04 08:21:59;;;;;;;8.40;2.78;;;;;;;56.40;4.13;99899.47;5052598;28;20500;-66
2022/08/04 08:24:29;;;;;;;4.25;2.70;;;;;;;57.11;3.45;99894.53;5064771;28;20093;-67
2022/08/04 08:26:57;;;;;;;21.90;10.73;;;;;;;57.55;3.01;99887.63;5072640;28;20461;-67
2022/08/04 08:29:25;;;;;;;6.22;2.88;;;;;;;58.37;3.51;99898.66;5072280;28;20048;-68
2022/08/04 08:31:53;;;;;;;7.88;2.95;;;;;;;57.98;3.58;99888.00;5072136;28;20044;-67
2022/08/04 08:34:28;;;;;;;3.83;2.72;;;;;;;58.80;3.08;99901.16;5053962;28;20055;-67
2022/08/04 08:37:03;;;;;;;5.15;2.85;;;;;;;57.93;3.71;99890.00;5052562;28;20053;-67
2022/08/04 08:40:02;;;;;;;7.10;3.00;;;;;;;57.95;3.12;99892.31;5051924;28;20536;-66
2022/08/04 08:42:48;;;;;;;5.43;3.10;;;;;;;57.50;3.08;99894.75;5048131;28;20082;-66
2022/08/04 08:45:33;;;;;;;5.25;3.00;;;;;;;54.61;4.51;99897.78;5032110;28;20531;-66
2022/08/04 08:48:22;;;;;;;7.22;3.20;;;;;;;54.56;4.90;99890.72;5037859;28;20044;-67
2022/08/04 08:51:05;;;;;;;10.32;3.05;;;;;;;56.77;3.84;99891.50;5056071;28;20477;-68
2022/08/04 08:54:08;;;;;;;4.82;3.28;;;;;;;57.93;3.25;99890.00;5071901;28;20444;-67
2022/08/04 08:56:41;;;;;;;8.77;3.35;;;;;;;58.87;2.95;99885.03;5032938;28;20067;-67
2022/08/04 08:59:10;;;;;;;8.25;3.13;;;;;;;57.17;3.46;99900.91;5036300;28;20440;-67
2022/08/04 09:02:06;;;;;;;8.27;2.90;;;;;;;51.09;6.50;99885.72;5036075;28;20046;-67
2022/08/04 09:04:42;;;;;;;5.53;3.28;;;;;;;47.22;8.94;99877.31;5035627;28;20058;-68
2022/08/04 09:07:34;;;;;;;6.47;3.05;;;;;;;50.69;6.91;99876.13;5059756;28;20139;-67
2022/08/04 09:10:19;;;;;;;16.15;4.53;;;;;;;53.59;5.81;99863.81;5042649;28;20052;-67
2022/08/04 09:13:05;;;;;;;5.47;3.22;;;;;;;56.30;4.45;99877.84;5057679;28;20554;-67
2022/08/04 09:15:45;;;;;;;5.20;2.83;;;;;;;55.40;5.05;99885.00;5075895;28;20041;-67
2022/08/04 09:18:33;;;;;;;7.90;4.65;;;;;;;49.32;7.78;99878.06;5068580;28;20094;-68
2022/08/04 09:21:03;;;;;;;9.95;3.50;;;;;;;44.66;10.56;99882.69;5071086;28;20095;-68
2022/08/04 09:23:40;;;;;;;10.00;3.10;;;;;;;42.47;11.95;99879.72;5069065;28;20040;-67
2022/08/04 09:26:25;;;;;;;8.40;3.20;;;;;;;44.65;10.57;99873.09;5072643;28;20059;-67
2022/08/04 09:29:06;;;;;;;7.28;3.53;;;;;;;46.94;9.36;99868.44;5066410;28;20044;-67
2022/08/04 09:31:55;;;;;;;5.13;3.20;;;;;;;50.59;7.48;99873.03;5056428;28;20602;-68
2022/08/04 09:34:51;;;;;;;7.55;2.88;;;;;;;53.62;6.40;99871.47;5050544;28;20056;-66
2022/08/04 09:37:48;;;;;;;6.22;3.67;;;;;;;55.20;5.07;99865.69;5073797;28;20127;-67
2022/08/04 09:40:31;;;;;;;7.78;2.90;;;;;;;56.18;4.60;99874.03;5043188;28;20156;-67
2022/08/04 09:43:46;;;;;;;7.60;3.72;;;;;;;49.20;7.80;99862.09;5055506;28;20071;-67
2022/08/04 09:46:47;;;;;;;5.32;3.72;;;;;;;43.99;11.09;99856.50;5066031;28;20044;-66
2022/08/04 09:49:25;;;;;;;6.13;3.58;;;;;;;41.28;13.21;99860.91;5070272;28;20098;-67
2022/08/04 09:51:54;;;;;;;9.02;3.30;;;;;;;39.62;14.98;99859.97;5058305;28;20044;-67
2022/08/04 09:55:02;;;;;;;11.07;3.55;;;;;;;38.21;15.81;99856.31;5075088;28;20037;-68
2022/08/04 09:57:44;;;;;;;4.32;3.22;;;;;;;36.96;16.76;99865.78;5067076;28;20558;-67
2022/08/04 10:00:15;;;;;;;7.43;3.15;;;;;;;36.27;17.48;99867.25;5074983;28;20059;-67
2022/08/04 10:02:54;;;;;;;9.02;3.95;;;;;;;35.73;18.40;99856.19;5064035;28;20178;-67
2022/08/04 10:05:28;;;;;;;5.78;3.58;;;;;;;35.20;19.50;99849.53;5058753;28;20147;-74
2022/08/04 10:08:14;;;;;;;11.90;4.25;;;;;;;34.63;20.39;99842.94;5058900;28;20373;-73
2022/08/04 10:11:07;;;;;;;4.90;3.67;;;;;;;34.17;20.54;99846.47;5063707;28;20132;-74
2022/08/04 10:13:49;;;;;;;135.25;48.72;;;;;;;33.85;21.27;99852.91;5054889;28;20044;-69
2022/08/04 10:16:39;;;;;;;7.47;4.53;;;;;;;33.59;21.65;99852.47;5055162;28;20389;-69
2022/08/04 10:19:12;;;;;;;5.60;3.85;;;;;;;33.20;22.28;99853.38;5054158;28;20059;-70
2022/08/04 10:22:06;;;;;;;8.40;3.90;;;;;;;33.13;22.35;99857.38;5054946;28;20527;-70
2022/08/04 10:25:44;;;;;;;7.20;4.13;;;;;;;33.40;22.01;99848.81;5055236;28;20064;-70
2022/08/04 10:28:40;;;;;;;5.95;3.53;;;;;;;33.60;21.88;99844.63;5008370;28;20050;-69
2022/08/04 10:31:12;;;;;;;80.65;38.38;;;;;;;33.51;22.23;99844.63;5055353;28;20075;-69
2022/08/04 10:33:46;;;;;;;30.85;5.20;;;;;;;33.50;22.54;99843.81;5062159;28;20041;-69
2022/08/04 10:36:20;;;;;;;14.75;4.82;;;;;;;33.29;22.88;99848.44;5054657;28;20063;-66
2022/08/04 10:39:08;;;;;;;7.25;4.78;;;;;;;32.96;22.96;99850.31;5072400;28;20446;-66
2022/08/04 10:42:13;;;;;;;7.93;4.38;;;;;;;32.48;23.63;99851.09;5060976;28;20067;-67
2022/08/04 10:45:15;;;;;;;7.72;4.57;;;;;;;32.21;23.61;99862.47;5066279;28;20143;-66
2022/08/04 10:48:05;;;;;;;7.63;4.65;;;;;;;31.87;24.46;99856.78;5045482;28;20068;-66
2022/08/04 10:50:41;;;;;;;102.30;45.63;;;;;;;31.70;24.82;99859.03;5068314;28;20529;-66
2022/08/04 10:53:16;;;;;;;11.82;4.97;;;;;;;31.62;24.64;99854.03;5074186;28;20072;-67
2022/08/04 10:55:56;;;;;;;11.73;4.70;;;;;;;31.59;24.89;99852.09;5074289;28;20072;-66
2022/08/04 10:58:48;;;;;;;6.65;4.43;;;;;;;31.49;25.04;99856.16;5074148;28;20535;-65
2022/08/04 11:01:35;;;;;;;13.13;4.32;;;;;;;31.54;25.37;99861.31;5064821;28;20044;-65
2022/08/04 11:04:30;;;;;;;7.72;4.30;;;;;;;31.46;25.73;99859.97;5052909;28;20062;-66
2022/08/04 11:06:59;;;;;;;12.88;4.50;;;;;;;31.28;26.35;99857.75;5051126;28;20432;-66
2022/08/04 11:09:27;;;;;;;14.10;5.95;;;;;;;31.31;26.81;99862.56;5050278;28;20059;-66
2022/08/04 11:12:24;;;;;;;10.15;4.30;;;;;;;31.40;25.86;99856.06;5050338;28;20044;-66
2022/08/04 11:14:57;;;;;;;8.27;4.57;;;;;;;31.48;25.77;99857.44;5043476;28;20045;-65
2022/08/04 11:17:34;;;;;;;7.15;5.25;;;;;;;31.52;25.72;99849.47;5058842;28;20040;-65
2022/08/04 11:20:11;;;;;;;10.88;4.88;;;;;;;31.62;25.85;99851.94;5051263;28;20049;-64
2022/08/04 11:23:16;;;;;;;8.70;5.03;;;;;;;31.87;25.53;99845.28;5051179;28;20044;-65
2022/08/04 11:25:59;;;;;;;9.73;4.85;;;;;;;31.99;25.29;99853.03;5050303;28;20044;-66
2022/08/04 11:28:33;;;;;;;7.25;5.00;;;;;;;31.86;25.15;99855.19;5047859;28;20413;-66
2022/08/04 11:31:06;;;;;;;6.22;4.93;;;;;;;31.65;25.10;99856.75;5049466;28;20168;-66
2022/08/04 11:33:41;;;;;;;32.38;18.02;;;;;;;31.44;25.37;99853.88;5056621;28;20055;-66
2022/08/04 11:36:25;;;;;;;9.38;5.38;;;;;;;31.13;26.06;99850.03;5054834;28;20304;-65
2022/08/04 11:39:33;;;;;;;7.90;5.00;;;;;;;30.92;25.80;99847.91;5054537;28;20512;-66
2022/08/04 11:42:00;;;;;;;;;;;;;;;30.75;26.33;99849.31;5042742;28;20431;-67
2022/08/04 11:44:36;;;;;;;6.90;5.25;;;;;;;30.82;26.47;99843.34;5053207;28;19928;-66
2022/08/04 11:47:37;;;;;;;10.48;5.03;;;;;;;30.93;26.01;99835.97;5053014;28;20048;-73
2022/08/04 11:50:09;;;;;;;9.57;5.03;;;;;;;31.02;26.74;99843.88;5052776;28;20401;-75
2022/08/04 11:52:43;;;;;;;16.83;5.50;;;;;;;31.10;27.18;99851.78;5058049;28;20103;-67
2022/08/04 11:55:16;;;;;;;14.90;5.78;;;;;;;31.16;27.24;99852.81;5052999;28;20120;-71
2022/08/04 11:57:43;;;;;;;8.70;6.13;;;;;;;31.11;27.26;99843.97;5063564;28;20055;-70
2022/08/04 12:00:21;;;;;;;8.35;5.82;;;;;;;31.11;27.53;99849.72;5068817;28;20052;-71
2022/08/04 12:03:15;;;;;;;14.33;5.83;;;;;;;30.94;27.67;99839.66;5069718;28;20131;-70
2022/08/04 12:05:57;;;;;;;7.35;5.10;;;;;;;30.89;27.42;99837.34;5052334;28;20288;-69
2022/08/04 12:09:03;;;;;;;13.10;5.40;;;;;;;30.80;27.42;99840.13;5053874;28;20048;-69
2022/08/04 12:11:29;;;;;;;14.50;8.13;;;;;;;30.87;28.05;99848.53;5011281;28;20057;-69
2022/08/04 12:14:08;;;;;;;38.13;20.58;;;;;;;30.92;27.64;99836.41;5052358;28;20515;-69
2022/08/04 12:16:41;;;;;;;;;;;;;;;30.83;27.81;99839.19;5053093;28;20049;-69
2022/08/04 12:19:31;;;;;;;10.15;5.90;;;;;;;31.01;27.84;99839.38;5052510;28;20019;-70
2022/08/04 12:22:24;;;;;;;11.90;6.40;;;;;;;30.85;28.17;99837.50;5059418;28;20057;-69
2022/08/04 12:25:05;;;;;;;12.40;6.43;;;;;;;30.80;28.41;99838.06;5060686;28;20053;-70
2022/08/04 12:27:39;;;;;;;21.88;7.78;;;;;;;30.68;28.53;99843.78;5052273;28;20143;-69
2022/08/04 12:30:06;;;;;;;26.13;7.80;;;;;;;30.48;28.52;99838.28;5052079;28;20057;-69
2022/08/04 12:33:02;;;;;;;32.03;6.70;;;;;;;30.49;28.46;99831.28;5064033;28;20482;-69
2022/08/04 12:35:39;;;;;;;25.23;7.40;;;;;;;30.45;28.80;99827.72;5069384;28;20059;-65
2022/08/04 12:38:31;;;;;;;35.47;6.70;;;;;;;30.52;28.32;99829.56;5072305;28;20052;-66
2022/08/04 12:41:02;;;;;;;13.07;6.85;;;;;;;30.57;28.26;99828.97;5072190;28;20067;-66